sensor_id;sensor_type;location;lat;lon;timestamp;P1;durP1;ratioP1;P2;durP2;ratioP2
37241;SDS011;23135;51.078;12.108;2023-07-20T00:01:51;19.08;;;3.03;;
37241;SDS011;23135;51.078;12.108;2023-07-20T00:04:16;5.68;;;2.17;;
37241;SDS011;23135;51.078;12.108;2023-07-20T00:06:42;9.00;;;2.50;;
37241;SDS011;23135;51.078;12.108;2023-07-20T00:09:07;13.77;;;2.90;;
37241;SDS011;23135;51.078;12.108;2023-07-20T00:11:35;7.93;;;2.42;;
37241;SDS011;23135;51.078;12.108;2023-07-20T00:14:04;14.73;;;2.20;;
37241;SDS011;23135;51.078;12.108;2023-07-20T00:16:31;4.28;;;2.45;;
37241;SDS011;23135;51.078;12.108;2023-07-20T00:18:56;8.65;;;3.13;;
37241;SDS011;23135;51.078;12.108;2023-07-20T00:21:22;11.70;;;2.63;;
37241;SDS011;23135;51.078;12.108;2023-07-20T00:23:48;8.25;;;2.22;;
37241;SDS011;23135;51.078;12.108;2023-07-20T00:26:13;10.75;;;2.25;;
37241;SDS011;23135;51.078;12.108;2023-07-20T00:28:39;12.82;;;2.70;;
37241;SDS011;23135;51.078;12.108;2023-07-20T00:31:04;16.10;;;3.25;;
37241;SDS011;23135;51.078;12.108;2023-07-20T00:33:30;12.27;;;2.38;;
37241;SDS011;23135;51.078;12.108;2023-07-20T00:35:56;6.68;;;1.83;;
37241;SDS011;23135;51.078;12.108;2023-07-20T00:38:21;5.00;;;2.25;;
37241;SDS011;23135;51.078;12.108;2023-07-20T00:40:47;6.38;;;2.42;;
37241;SDS011;23135;51.078;12.108;2023-07-20T00:43:16;13.57;;;2.95;;
37241;SDS011;23135;51.078;12.108;2023-07-20T00:45:41;10.20;;;3.35;;
37241;SDS011;23135;51.078;12.108;2023-07-20T00:48:08;8.52;;;3.22;;
37241;SDS011;23135;51.078;12.108;2023-07-20T00:50:33;11.73;;;2.88;;
37241;SDS011;23135;51.078;12.108;2023-07-20T00:52:59;9.13;;;2.72;;
37241;SDS011;23135;51.078;12.108;2023-07-20T00:55:28;9.32;;;2.67;;
37241;SDS011;23135;51.078;12.108;2023-07-20T00:57:54;12.68;;;3.22;;
37241;SDS011;23135;51.078;12.108;2023-07-20T01:00:20;8.93;;;2.83;;
37241;SDS011;23135;51.078;12.108;2023-07-20T01:02:45;6.32;;;3.25;;
37241;SDS011;23135;51.078;12.108;2023-07-20T01:05:12;7.13;;;3.17;;
37241;SDS011;23135;51.078;12.108;2023-07-20T01:07:43;11.02;;;3.78;;
37241;SDS011;23135;51.078;12.108;2023-07-20T01:10:24;6.97;;;2.97;;
37241;SDS011;23135;51.078;12.108;2023-07-20T01:12:56;6.63;;;3.03;;
37241;SDS011;23135;51.078;12.108;2023-07-20T01:15:22;10.80;;;3.60;;
37241;SDS011;23135;51.078;12.108;2023-07-20T01:17:49;6.15;;;3.60;;
37241;SDS011;23135;51.078;12.108;2023-07-20T01:20:15;9.68;;;4.10;;
37241;SDS011;23135;51.078;12.108;2023-07-20T01:26:05;20.48;;;4.10;;
37241;SDS011;23135;51.078;12.108;2023-07-20T01:31:37;13.77;;;4.00;;
37241;SDS011;23135;51.078;12.108;2023-07-20T01:34:03;17.23;;;3.28;;
37241;SDS011;23135;51.078;12.108;2023-07-20T01:36:34;19.73;;;4.28;;
37241;SDS011;23135;51.078;12.108;2023-07-20T01:39:02;19.08;;;5.35;;
37241;SDS011;23135;51.078;12.108;2023-07-20T01:41:29;11.18;;;3.95;;
37241;SDS011;23135;51.078;12.108;2023-07-20T01:43:58;8.68;;;3.20;;
37241;SDS011;23135;51.078;12.108;2023-07-20T01:46:24;6.40;;;3.72;;
37241;SDS011;23135;51.078;12.108;2023-07-20T01:48:50;10.13;;;3.65;;
37241;SDS011;23135;51.078;12.108;2023-07-20T01:51:16;10.43;;;3.05;;
37241;SDS011;23135;51.078;12.108;2023-07-20T01:53:43;7.63;;;3.47;;
37241;SDS011;23135;51.078;12.108;2023-07-20T01:56:08;9.40;;;3.65;;
37241;SDS011;23135;51.078;12.108;2023-07-20T01:58:34;8.10;;;3.70;;
37241;SDS011;23135;51.078;12.108;2023-07-20T02:01:00;13.45;;;3.90;;
37241;SDS011;23135;51.078;12.108;2023-07-20T02:03:26;16.20;;;4.03;;
37241;SDS011;23135;51.078;12.108;2023-07-20T02:05:52;9.25;;;3.78;;
37241;SDS011;23135;51.078;12.108;2023-07-20T02:08:18;19.15;;;4.88;;
37241;SDS011;23135;51.078;12.108;2023-07-20T02:10:47;5.40;;;3.35;;
37241;SDS011;23135;51.078;12.108;2023-07-20T02:13:13;13.38;;;3.75;;
37241;SDS011;23135;51.078;12.108;2023-07-20T02:15:39;12.45;;;4.57;;
37241;SDS011;23135;51.078;12.108;2023-07-20T02:18:05;14.13;;;4.47;;
37241;SDS011;23135;51.078;12.108;2023-07-20T02:20:31;10.48;;;4.45;;
37241;SDS011;23135;51.078;12.108;2023-07-20T02:22:56;12.15;;;5.10;;
37241;SDS011;23135;51.078;12.108;2023-07-20T02:25:22;9.52;;;4.25;;
37241;SDS011;23135;51.078;12.108;2023-07-20T02:27:47;7.30;;;3.67;;
37241;SDS011;23135;51.078;12.108;2023-07-20T02:30:13;6.40;;;4.15;;
37241;SDS011;23135;51.078;12.108;2023-07-20T02:32:38;13.65;;;4.88;;
37241;SDS011;23135;51.078;12.108;2023-07-20T02:35:04;17.85;;;4.35;;
37241;SDS011;23135;51.078;12.108;2023-07-20T02:37:31;11.68;;;4.38;;
37241;SDS011;23135;51.078;12.108;2023-07-20T02:39:57;8.70;;;3.95;;
37241;SDS011;23135;51.078;12.108;2023-07-20T02:42:23;14.05;;;4.93;;
37241;SDS011;23135;51.078;12.108;2023-07-20T02:44:50;14.10;;;4.40;;
37241;SDS011;23135;51.078;12.108;2023-07-20T02:47:16;13.07;;;4.97;;
37241;SDS011;23135;51.078;12.108;2023-07-20T02:49:42;17.65;;;4.80;;
37241;SDS011;23135;51.078;12.108;2023-07-20T02:52:08;8.48;;;4.03;;
37241;SDS011;23135;51.078;12.108;2023-07-20T02:54:34;12.88;;;4.80;;
37241;SDS011;23135;51.078;12.108;2023-07-20T02:56:59;11.52;;;4.43;;
37241;SDS011;23135;51.078;12.108;2023-07-20T02:59:26;13.05;;;4.45;;
37241;SDS011;23135;51.078;12.108;2023-07-20T03:01:52;9.15;;;4.28;;
37241;SDS011;23135;51.078;12.108;2023-07-20T03:04:19;23.27;;;4.65;;
37241;SDS011;23135;51.078;12.108;2023-07-20T03:06:44;23.05;;;4.97;;
37241;SDS011;23135;51.078;12.108;2023-07-20T03:09:10;21.73;;;4.88;;
37241;SDS011;23135;51.078;12.108;2023-07-20T03:11:36;20.40;;;5.18;;
37241;SDS011;23135;51.078;12.108;2023-07-20T03:14:02;18.77;;;4.93;;
37241;SDS011;23135;51.078;12.108;2023-07-20T03:16:27;20.73;;;5.18;;
37241;SDS011;23135;51.078;12.108;2023-07-20T03:18:53;14.57;;;5.45;;
37241;SDS011;23135;51.078;12.108;2023-07-20T03:21:18;13.88;;;5.30;;
37241;SDS011;23135;51.078;12.108;2023-07-20T03:23:44;19.20;;;5.45;;
37241;SDS011;23135;51.078;12.108;2023-07-20T03:26:10;19.88;;;6.13;;
37241;SDS011;23135;51.078;12.108;2023-07-20T03:28:38;14.98;;;4.63;;
37241;SDS011;23135;51.078;12.108;2023-07-20T03:31:04;23.20;;;5.88;;
37241;SDS011;23135;51.078;12.108;2023-07-20T03:33:30;30.98;;;7.47;;
37241;SDS011;23135;51.078;12.108;2023-07-20T03:35:57;38.13;;;6.88;;
37241;SDS011;23135;51.078;12.108;2023-07-20T03:38:23;32.15;;;4.45;;
37241;SDS011;23135;51.078;12.108;2023-07-20T03:40:56;32.53;;;5.90;;
37241;SDS011;23135;51.078;12.108;2023-07-20T03:43:23;34.58;;;5.32;;
37241;SDS011;23135;51.078;12.108;2023-07-20T03:45:50;39.25;;;5.72;;
37241;SDS011;23135;51.078;12.108;2023-07-20T03:48:17;27.33;;;5.03;;
37241;SDS011;23135;51.078;12.108;2023-07-20T03:50:44;45.58;;;6.90;;
37241;SDS011;23135;51.078;12.108;2023-07-20T03:53:11;15.10;;;6.15;;
37241;SDS011;23135;51.078;12.108;2023-07-20T03:55:37;15.45;;;5.43;;
37241;SDS011;23135;51.078;12.108;2023-07-20T03:58:02;16.88;;;5.35;;
37241;SDS011;23135;51.078;12.108;2023-07-20T04:00:28;19.20;;;5.20;;
37241;SDS011;23135;51.078;12.108;2023-07-20T04:02:54;37.28;;;6.82;;
37241;SDS011;23135;51.078;12.108;2023-07-20T04:05:19;25.00;;;7.22;;
37241;SDS011;23135;51.078;12.108;2023-07-20T04:07:45;22.30;;;8.63;;
37241;SDS011;23135;51.078;12.108;2023-07-20T04:10:11;18.95;;;7.93;;
37241;SDS011;23135;51.078;12.108;2023-07-20T04:12:37;16.42;;;6.97;;
37241;SDS011;23135;51.078;12.108;2023-07-20T04:15:03;10.23;;;3.20;;
37241;SDS011;23135;51.078;12.108;2023-07-20T04:17:29;3.97;;;2.42;;
37241;SDS011;23135;51.078;12.108;2023-07-20T04:19:54;1.77;;;0.50;;
37241;SDS011;23135;51.078;12.108;2023-07-20T04:22:20;2.05;;;0.40;;
37241;SDS011;23135;51.078;12.108;2023-07-20T04:24:46;1.77;;;1.27;;
37241;SDS011;23135;51.078;12.108;2023-07-20T04:27:12;0.73;;;0.20;;
37241;SDS011;23135;51.078;12.108;2023-07-20T04:29:38;2.13;;;0.10;;
37241;SDS011;23135;51.078;12.108;2023-07-20T04:32:03;1.02;;;0.00;;
37241;SDS011;23135;51.078;12.108;2023-07-20T04:34:29;2.15;;;0.28;;
37241;SDS011;23135;51.078;12.108;2023-07-20T04:36:55;1.15;;;0.40;;
37241;SDS011;23135;51.078;12.108;2023-07-20T04:39:20;1.23;;;0.43;;
37241;SDS011;23135;51.078;12.108;2023-07-20T04:41:46;3.03;;;0.22;;
37241;SDS011;23135;51.078;12.108;2023-07-20T04:44:13;2.25;;;0.63;;
37241;SDS011;23135;51.078;12.108;2023-07-20T04:46:39;2.22;;;0.43;;
37241;SDS011;23135;51.078;12.108;2023-07-20T04:49:05;2.92;;;0.70;;
37241;SDS011;23135;51.078;12.108;2023-07-20T04:51:31;2.08;;;0.93;;
37241;SDS011;23135;51.078;12.108;2023-07-20T04:53:57;2.35;;;1.38;;
37241;SDS011;23135;51.078;12.108;2023-07-20T04:56:23;6.97;;;2.15;;
37241;SDS011;23135;51.078;12.108;2023-07-20T04:58:49;10.77;;;2.90;;
37241;SDS011;23135;51.078;12.108;2023-07-20T05:01:15;2.88;;;1.73;;
37241;SDS011;23135;51.078;12.108;2023-07-20T05:03:41;2.58;;;2.17;;
37241;SDS011;23135;51.078;12.108;2023-07-20T05:06:06;5.70;;;2.80;;
37241;SDS011;23135;51.078;12.108;2023-07-20T05:08:32;7.70;;;2.40;;
37241;SDS011;23135;51.078;12.108;2023-07-20T05:10:59;7.78;;;3.15;;
37241;SDS011;23135;51.078;12.108;2023-07-20T05:13:25;5.07;;;2.88;;
37241;SDS011;23135;51.078;12.108;2023-07-20T05:15:51;2.97;;;2.22;;
37241;SDS011;23135;51.078;12.108;2023-07-20T05:18:17;8.70;;;2.17;;
37241;SDS011;23135;51.078;12.108;2023-07-20T05:20:45;4.95;;;3.10;;
37241;SDS011;23135;51.078;12.108;2023-07-20T05:23:17;4.20;;;2.20;;
37241;SDS011;23135;51.078;12.108;2023-07-20T05:25:43;4.90;;;2.15;;
37241;SDS011;23135;51.078;12.108;2023-07-20T05:28:09;6.65;;;2.58;;
37241;SDS011;23135;51.078;12.108;2023-07-20T05:30:34;9.27;;;3.30;;
37241;SDS011;23135;51.078;12.108;2023-07-20T05:33:00;7.60;;;3.20;;
37241;SDS011;23135;51.078;12.108;2023-07-20T05:35:26;6.55;;;3.15;;
37241;SDS011;23135;51.078;12.108;2023-07-20T05:37:52;10.20;;;3.72;;
37241;SDS011;23135;51.078;12.108;2023-07-20T05:40:17;19.33;;;4.53;;
37241;SDS011;23135;51.078;12.108;2023-07-20T05:42:47;12.85;;;4.43;;
37241;SDS011;23135;51.078;12.108;2023-07-20T05:45:16;11.60;;;5.53;;
37241;SDS011;23135;51.078;12.108;2023-07-20T05:47:42;8.38;;;4.70;;
37241;SDS011;23135;51.078;12.108;2023-07-20T05:50:08;8.57;;;4.82;;
37241;SDS011;23135;51.078;12.108;2023-07-20T05:52:34;9.90;;;4.55;;
37241;SDS011;23135;51.078;12.108;2023-07-20T05:55:00;7.78;;;4.45;;
37241;SDS011;23135;51.078;12.108;2023-07-20T05:57:26;17.77;;;5.53;;
37241;SDS011;23135;51.078;12.108;2023-07-20T05:59:51;9.90;;;4.35;;
37241;SDS011;23135;51.078;12.108;2023-07-20T06:02:17;10.18;;;4.13;;
37241;SDS011;23135;51.078;12.108;2023-07-20T06:04:43;11.45;;;4.57;;
37241;SDS011;23135;51.078;12.108;2023-07-20T06:07:09;11.05;;;4.18;;
37241;SDS011;23135;51.078;12.108;2023-07-20T06:09:35;7.63;;;3.72;;
37241;SDS011;23135;51.078;12.108;2023-07-20T06:12:01;5.82;;;4.90;;
37241;SDS011;23135;51.078;12.108;2023-07-20T06:14:27;9.88;;;4.18;;
37241;SDS011;23135;51.078;12.108;2023-07-20T06:16:52;9.80;;;3.80;;
37241;SDS011;23135;51.078;12.108;2023-07-20T06:19:18;8.02;;;4.07;;
37241;SDS011;23135;51.078;12.108;2023-07-20T06:21:44;9.13;;;3.50;;
37241;SDS011;23135;51.078;12.108;2023-07-20T06:24:09;4.40;;;2.38;;
37241;SDS011;23135;51.078;12.108;2023-07-20T06:26:35;8.73;;;2.40;;
37241;SDS011;23135;51.078;12.108;2023-07-20T06:29:07;5.00;;;3.05;;
37241;SDS011;23135;51.078;12.108;2023-07-20T06:31:34;6.35;;;1.95;;
37241;SDS011;23135;51.078;12.108;2023-07-20T06:34:00;3.45;;;2.42;;
37241;SDS011;23135;51.078;12.108;2023-07-20T06:36:26;5.57;;;2.22;;
37241;SDS011;23135;51.078;12.108;2023-07-20T06:38:52;3.05;;;2.17;;
37241;SDS011;23135;51.078;12.108;2023-07-20T06:41:18;2.55;;;2.22;;
37241;SDS011;23135;51.078;12.108;2023-07-20T06:43:44;2.78;;;2.00;;
37241;SDS011;23135;51.078;12.108;2023-07-20T06:46:10;4.82;;;1.65;;
37241;SDS011;23135;51.078;12.108;2023-07-20T06:48:35;4.43;;;1.83;;
37241;SDS011;23135;51.078;12.108;2023-07-20T06:51:01;14.70;;;1.77;;
37241;SDS011;23135;51.078;12.108;2023-07-20T06:53:27;4.35;;;2.33;;
37241;SDS011;23135;51.078;12.108;2023-07-20T06:55:53;5.38;;;1.85;;
37241;SDS011;23135;51.078;12.108;2023-07-20T06:58:19;4.18;;;2.47;;
37241;SDS011;23135;51.078;12.108;2023-07-20T07:00:46;3.67;;;2.20;;
37241;SDS011;23135;51.078;12.108;2023-07-20T07:03:12;3.40;;;2.25;;
37241;SDS011;23135;51.078;12.108;2023-07-20T07:05:37;6.75;;;1.92;;
37241;SDS011;23135;51.078;12.108;2023-07-20T07:08:06;8.23;;;3.10;;
37241;SDS011;23135;51.078;12.108;2023-07-20T07:10:33;8.35;;;3.40;;
37241;SDS011;23135;51.078;12.108;2023-07-20T07:13:00;6.00;;;2.88;;
37241;SDS011;23135;51.078;12.108;2023-07-20T07:15:26;4.82;;;3.13;;
37241;SDS011;23135;51.078;12.108;2023-07-20T07:17:52;3.17;;;2.92;;
37241;SDS011;23135;51.078;12.108;2023-07-20T07:20:18;5.82;;;3.22;;
37241;SDS011;23135;51.078;12.108;2023-07-20T07:22:44;7.15;;;3.83;;
37241;SDS011;23135;51.078;12.108;2023-07-20T07:25:10;5.95;;;2.67;;
37241;SDS011;23135;51.078;12.108;2023-07-20T07:27:36;3.78;;;2.67;;
37241;SDS011;23135;51.078;12.108;2023-07-20T07:30:02;4.93;;;3.22;;
37241;SDS011;23135;51.078;12.108;2023-07-20T07:32:28;3.15;;;2.85;;
37241;SDS011;23135;51.078;12.108;2023-07-20T07:34:54;3.40;;;2.25;;
37241;SDS011;23135;51.078;12.108;2023-07-20T07:37:20;5.88;;;2.45;;
37241;SDS011;23135;51.078;12.108;2023-07-20T07:39:45;6.82;;;2.13;;
37241;SDS011;23135;51.078;12.108;2023-07-20T07:42:11;5.45;;;1.80;;
37241;SDS011;23135;51.078;12.108;2023-07-20T07:44:38;4.43;;;1.95;;
37241;SDS011;23135;51.078;12.108;2023-07-20T07:47:04;3.42;;;2.05;;
37241;SDS011;23135;51.078;12.108;2023-07-20T07:49:29;5.43;;;1.75;;
37241;SDS011;23135;51.078;12.108;2023-07-20T07:51:56;5.78;;;2.17;;
37241;SDS011;23135;51.078;12.108;2023-07-20T07:54:22;3.63;;;1.33;;
37241;SDS011;23135;51.078;12.108;2023-07-20T07:56:47;6.07;;;1.33;;
37241;SDS011;23135;51.078;12.108;2023-07-20T07:59:13;2.47;;;1.23;;
37241;SDS011;23135;51.078;12.108;2023-07-20T08:01:40;5.50;;;1.23;;
37241;SDS011;23135;51.078;12.108;2023-07-20T08:04:05;5.15;;;1.17;;
37241;SDS011;23135;51.078;12.108;2023-07-20T08:06:31;4.05;;;0.85;;
37241;SDS011;23135;51.078;12.108;2023-07-20T08:08:57;3.85;;;1.05;;
37241;SDS011;23135;51.078;12.108;2023-07-20T08:11:23;6.13;;;1.20;;
37241;SDS011;23135;51.078;12.108;2023-07-20T08:13:49;1.70;;;1.17;;
37241;SDS011;23135;51.078;12.108;2023-07-20T08:16:14;3.50;;;0.65;;
37241;SDS011;23135;51.078;12.108;2023-07-20T08:18:40;1.95;;;1.17;;
37241;SDS011;23135;51.078;12.108;2023-07-20T08:21:06;7.40;;;1.13;;
37241;SDS011;23135;51.078;12.108;2023-07-20T08:23:32;7.03;;;1.27;;
37241;SDS011;23135;51.078;12.108;2023-07-20T08:25:57;4.30;;;0.50;;
37241;SDS011;23135;51.078;12.108;2023-07-20T08:28:23;1.70;;;0.73;;
37241;SDS011;23135;51.078;12.108;2023-07-20T08:30:49;1.05;;;0.10;;
37241;SDS011;23135;51.078;12.108;2023-07-20T08:33:15;4.55;;;0.93;;
37241;SDS011;23135;51.078;12.108;2023-07-20T08:35:43;1.35;;;0.40;;
37241;SDS011;23135;51.078;12.108;2023-07-20T08:38:09;1.52;;;0.35;;
37241;SDS011;23135;51.078;12.108;2023-07-20T08:40:47;1.65;;;0.57;;
37241;SDS011;23135;51.078;12.108;2023-07-20T08:43:13;5.47;;;1.20;;
37241;SDS011;23135;51.078;12.108;2023-07-20T08:45:41;2.88;;;0.32;;
37241;SDS011;23135;51.078;12.108;2023-07-20T08:48:10;1.88;;;0.40;;
37241;SDS011;23135;51.078;12.108;2023-07-20T08:50:37;1.35;;;0.28;;
37241;SDS011;23135;51.078;12.108;2023-07-20T08:53:04;2.05;;;0.20;;
37241;SDS011;23135;51.078;12.108;2023-07-20T08:55:30;1.98;;;0.30;;
37241;SDS011;23135;51.078;12.108;2023-07-20T08:57:59;0.40;;;0.20;;
37241;SDS011;23135;51.078;12.108;2023-07-20T09:00:26;2.40;;;0.10;;
37241;SDS011;23135;51.078;12.108;2023-07-20T09:02:55;2.15;;;0.28;;
37241;SDS011;23135;51.078;12.108;2023-07-20T09:05:22;1.45;;;0.22;;
37241;SDS011;23135;51.078;12.108;2023-07-20T09:07:50;3.10;;;0.63;;
37241;SDS011;23135;51.078;12.108;2023-07-20T09:10:17;4.03;;;0.38;;
37241;SDS011;23135;51.078;12.108;2023-07-20T09:12:45;1.20;;;0.57;;
37241;SDS011;23135;51.078;12.108;2023-07-20T09:15:11;7.30;;;0.77;;
37241;SDS011;23135;51.078;12.108;2023-07-20T09:17:37;1.17;;;0.32;;
37241;SDS011;23135;51.078;12.108;2023-07-20T09:20:04;4.00;;;0.50;;
37241;SDS011;23135;51.078;12.108;2023-07-20T09:22:35;1.98;;;0.75;;
37241;SDS011;23135;51.078;12.108;2023-07-20T09:25:05;1.40;;;0.90;;
37241;SDS011;23135;51.078;12.108;2023-07-20T09:27:44;1.23;;;0.13;;
37241;SDS011;23135;51.078;12.108;2023-07-20T09:30:11;4.28;;;0.60;;
37241;SDS011;23135;51.078;12.108;2023-07-20T09:32:48;2.10;;;0.38;;
37241;SDS011;23135;51.078;12.108;2023-07-20T09:35:19;3.60;;;0.10;;
37241;SDS011;23135;51.078;12.108;2023-07-20T09:37:49;0.60;;;0.10;;
37241;SDS011;23135;51.078;12.108;2023-07-20T09:40:17;0.70;;;0.17;;
37241;SDS011;23135;51.078;12.108;2023-07-20T09:42:43;5.78;;;0.30;;
37241;SDS011;23135;51.078;12.108;2023-07-20T09:45:09;3.40;;;0.20;;
37241;SDS011;23135;51.078;12.108;2023-07-20T09:47:35;2.22;;;0.32;;
37241;SDS011;23135;51.078;12.108;2023-07-20T09:50:03;1.25;;;0.50;;
37241;SDS011;23135;51.078;12.108;2023-07-20T09:52:29;3.33;;;0.80;;
37241;SDS011;23135;51.078;12.108;2023-07-20T09:54:55;2.92;;;0.30;;
37241;SDS011;23135;51.078;12.108;2023-07-20T09:57:21;3.30;;;0.20;;
37241;SDS011;23135;51.078;12.108;2023-07-20T09:59:46;1.92;;;0.20;;
37241;SDS011;23135;51.078;12.108;2023-07-20T10:02:33;5.45;;;0.20;;
37241;SDS011;23135;51.078;12.108;2023-07-20T10:05:01;0.65;;;0.13;;
37241;SDS011;23135;51.078;12.108;2023-07-20T10:07:29;3.88;;;0.38;;
37241;SDS011;23135;51.078;12.108;2023-07-20T10:09:56;3.60;;;0.40;;
37241;SDS011;23135;51.078;12.108;2023-07-20T10:12:24;1.20;;;0.20;;
37241;SDS011;23135;51.078;12.108;2023-07-20T10:14:54;4.25;;;0.80;;
37241;SDS011;23135;51.078;12.108;2023-07-20T10:17:27;2.42;;;0.70;;
37241;SDS011;23135;51.078;12.108;2023-07-20T10:19:54;0.17;;;0.10;;
37241;SDS011;23135;51.078;12.108;2023-07-20T10:22:25;3.15;;;0.17;;
37241;SDS011;23135;51.078;12.108;2023-07-20T10:24:52;5.88;;;0.85;;
37241;SDS011;23135;51.078;12.108;2023-07-20T10:27:20;5.40;;;0.30;;
37241;SDS011;23135;51.078;12.108;2023-07-20T10:29:46;1.38;;;0.20;;
37241;SDS011;23135;51.078;12.108;2023-07-20T10:32:13;2.95;;;0.30;;
37241;SDS011;23135;51.078;12.108;2023-07-20T10:34:39;0.10;;;0.10;;
37241;SDS011;23135;51.078;12.108;2023-07-20T10:37:04;2.35;;;0.00;;
37241;SDS011;23135;51.078;12.108;2023-07-20T10:39:30;4.13;;;0.30;;
37241;SDS011;23135;51.078;12.108;2023-07-20T10:42:06;4.47;;;0.03;;
37241;SDS011;23135;51.078;12.108;2023-07-20T10:44:33;3.22;;;0.20;;
37241;SDS011;23135;51.078;12.108;2023-07-20T10:46:59;9.35;;;1.33;;
37241;SDS011;23135;51.078;12.108;2023-07-20T10:49:26;6.13;;;0.52;;
37241;SDS011;23135;51.078;12.108;2023-07-20T10:51:56;5.65;;;0.77;;
37241;SDS011;23135;51.078;12.108;2023-07-20T10:56:52;1.92;;;0.03;;
37241;SDS011;23135;51.078;12.108;2023-07-20T11:01:51;4.38;;;0.20;;
37241;SDS011;23135;51.078;12.108;2023-07-20T11:04:21;2.28;;;0.40;;
37241;SDS011;23135;51.078;12.108;2023-07-20T11:07:07;4.15;;;0.30;;
37241;SDS011;23135;51.078;12.108;2023-07-20T11:09:36;3.80;;;0.50;;
37241;SDS011;23135;51.078;12.108;2023-07-20T11:12:10;2.03;;;0.25;;
37241;SDS011;23135;51.078;12.108;2023-07-20T11:14:40;0.45;;;0.45;;
37241;SDS011;23135;51.078;12.108;2023-07-20T11:17:11;2.05;;;0.55;;
37241;SDS011;23135;51.078;12.108;2023-07-20T11:19:38;1.10;;;0.70;;
37241;SDS011;23135;51.078;12.108;2023-07-20T11:22:05;0.88;;;0.75;;
37241;SDS011;23135;51.078;12.108;2023-07-20T11:24:37;1.52;;;1.20;;
37241;SDS011;23135;51.078;12.108;2023-07-20T11:27:04;1.45;;;1.20;;
37241;SDS011;23135;51.078;12.108;2023-07-20T11:29:30;0.75;;;0.75;;
37241;SDS011;23135;51.078;12.108;2023-07-20T11:31:56;2.72;;;1.30;;
37241;SDS011;23135;51.078;12.108;2023-07-20T11:34:23;1.83;;;1.00;;
37241;SDS011;23135;51.078;12.108;2023-07-20T11:36:50;1.90;;;0.82;;
37241;SDS011;23135;51.078;12.108;2023-07-20T11:39:17;1.23;;;1.10;;
37241;SDS011;23135;51.078;12.108;2023-07-20T11:41:50;1.27;;;1.10;;
37241;SDS011;23135;51.078;12.108;2023-07-20T11:44:17;1.63;;;0.90;;
37241;SDS011;23135;51.078;12.108;2023-07-20T11:46:44;0.82;;;0.68;;
37241;SDS011;23135;51.078;12.108;2023-07-20T11:49:10;3.60;;;1.50;;
37241;SDS011;23135;51.078;12.108;2023-07-20T11:51:37;1.95;;;1.30;;
37241;SDS011;23135;51.078;12.108;2023-07-20T11:54:05;1.17;;;1.13;;
37241;SDS011;23135;51.078;12.108;2023-07-20T11:56:32;3.33;;;1.52;;
37241;SDS011;23135;51.078;12.108;2023-07-20T11:58:58;3.05;;;0.90;;
37241;SDS011;23135;51.078;12.108;2023-07-20T12:01:29;1.58;;;0.68;;
37241;SDS011;23135;51.078;12.108;2023-07-20T12:04:00;1.38;;;0.22;;
37241;SDS011;23135;51.078;12.108;2023-07-20T12:06:28;1.13;;;0.38;;
37241;SDS011;23135;51.078;12.108;2023-07-20T12:08:56;0.52;;;0.40;;
37241;SDS011;23135;51.078;12.108;2023-07-20T12:11:37;3.10;;;0.55;;
37241;SDS011;23135;51.078;12.108;2023-07-20T12:14:04;0.20;;;0.20;;
37241;SDS011;23135;51.078;12.108;2023-07-20T12:16:32;0.77;;;0.10;;
37241;SDS011;23135;51.078;12.108;2023-07-20T12:21:28;2.05;;;0.30;;
37241;SDS011;23135;51.078;12.108;2023-07-20T12:23:55;3.40;;;0.35;;
37241;SDS011;23135;51.078;12.108;2023-07-20T12:26:23;0.10;;;0.00;;
37241;SDS011;23135;51.078;12.108;2023-07-20T12:28:50;0.05;;;0.00;;
37241;SDS011;23135;51.078;12.108;2023-07-20T12:31:16;0.55;;;0.00;;
37241;SDS011;23135;51.078;12.108;2023-07-20T12:33:41;0.32;;;0.10;;
37241;SDS011;23135;51.078;12.108;2023-07-20T12:36:08;0.17;;;0.00;;
37241;SDS011;23135;51.078;12.108;2023-07-20T12:38:34;1.17;;;0.55;;
37241;SDS011;23135;51.078;12.108;2023-07-20T12:41:00;0.05;;;0.00;;
37241;SDS011;23135;51.078;12.108;2023-07-20T12:43:26;2.65;;;0.05;;
37241;SDS011;23135;51.078;12.108;2023-07-20T12:45:53;0.43;;;0.20;;
37241;SDS011;23135;51.078;12.108;2023-07-20T12:48:19;0.10;;;0.10;;
37241;SDS011;23135;51.078;12.108;2023-07-20T12:50:45;4.57;;;0.10;;
37241;SDS011;23135;51.078;12.108;2023-07-20T12:53:10;2.70;;;0.28;;
37241;SDS011;23135;51.078;12.108;2023-07-20T12:55:37;1.38;;;0.15;;
37241;SDS011;23135;51.078;12.108;2023-07-20T12:58:03;0.20;;;0.10;;
37241;SDS011;23135;51.078;12.108;2023-07-20T13:00:29;0.55;;;0.00;;
37241;SDS011;23135;51.078;12.108;2023-07-20T13:02:54;0.10;;;0.03;;
37241;SDS011;23135;51.078;12.108;2023-07-20T13:05:20;0.20;;;0.10;;
37241;SDS011;23135;51.078;12.108;2023-07-20T13:07:46;0.08;;;0.00;;
37241;SDS011;23135;51.078;12.108;2023-07-20T13:10:11;0.63;;;0.00;;
37241;SDS011;23135;51.078;12.108;2023-07-20T13:12:38;0.10;;;0.00;;
37241;SDS011;23135;51.078;12.108;2023-07-20T13:15:04;0.50;;;0.00;;
37241;SDS011;23135;51.078;12.108;2023-07-20T13:17:32;1.45;;;0.10;;
37241;SDS011;23135;51.078;12.108;2023-07-20T13:19:58;0.63;;;0.10;;
37241;SDS011;23135;51.078;12.108;2023-07-20T13:22:24;0.13;;;0.13;;
37241;SDS011;23135;51.078;12.108;2023-07-20T13:24:50;1.27;;;0.00;;
37241;SDS011;23135;51.078;12.108;2023-07-20T13:27:16;0.03;;;0.00;;
37241;SDS011;23135;51.078;12.108;2023-07-20T13:29:43;0.00;;;0.00;;
37241;SDS011;23135;51.078;12.108;2023-07-20T13:32:09;0.10;;;0.03;;
37241;SDS011;23135;51.078;12.108;2023-07-20T13:34:35;1.65;;;0.00;;
37241;SDS011;23135;51.078;12.108;2023-07-20T13:37:01;0.00;;;0.00;;
37241;SDS011;23135;51.078;12.108;2023-07-20T13:39:27;0.52;;;0.00;;
37241;SDS011;23135;51.078;12.108;2023-07-20T13:41:53;0.00;;;0.00;;
37241;SDS011;23135;51.078;12.108;2023-07-20T13:44:19;1.75;;;0.00;;
37241;SDS011;23135;51.078;12.108;2023-07-20T13:46:46;0.47;;;0.00;;
37241;SDS011;23135;51.078;12.108;2023-07-20T13:49:13;0.30;;;0.00;;
37241;SDS011;23135;51.078;12.108;2023-07-20T13:51:39;0.10;;;0.00;;
37241;SDS011;23135;51.078;12.108;2023-07-20T13:54:05;1.55;;;0.00;;
37241;SDS011;23135;51.078;12.108;2023-07-20T13:56:31;0.00;;;0.00;;
37241;SDS011;23135;51.078;12.108;2023-07-20T13:58:56;0.30;;;0.00;;
37241;SDS011;23135;51.078;12.108;2023-07-20T14:01:22;0.00;;;0.00;;
37241;SDS011;23135;51.078;12.108;2023-07-20T14:03:49;0.03;;;0.00;;
37241;SDS011;23135;51.078;12.108;2023-07-20T14:06:15;0.00;;;0.00;;
37241;SDS011;23135;51.078;12.108;2023-07-20T14:08:41;0.00;;;0.00;;
37241;SDS011;23135;51.078;12.108;2023-07-20T14:11:07;0.00;;;0.00;;
37241;SDS011;23135;51.078;12.108;2023-07-20T14:13:32;0.00;;;0.00;;
37241;SDS011;23135;51.078;12.108;2023-07-20T14:15:58;0.13;;;0.00;;
37241;SDS011;23135;51.078;12.108;2023-07-20T14:18:24;0.10;;;0.10;;
37241;SDS011;23135;51.078;12.108;2023-07-20T14:20:49;0.25;;;0.00;;
37241;SDS011;23135;51.078;12.108;2023-07-20T14:23:15;0.00;;;0.00;;
37241;SDS011;23135;51.078;12.108;2023-07-20T14:25:41;0.00;;;0.00;;
37241;SDS011;23135;51.078;12.108;2023-07-20T14:28:07;0.00;;;0.00;;
37241;SDS011;23135;51.078;12.108;2023-07-20T14:30:33;0.52;;;0.00;;
37241;SDS011;23135;51.078;12.108;2023-07-20T14:35:54;0.00;;;0.00;;
37241;SDS011;23135;51.078;12.108;2023-07-20T14:38:20;0.00;;;0.00;;
37241;SDS011;23135;51.078;12.108;2023-07-20T14:40:46;0.47;;;0.00;;
37241;SDS011;23135;51.078;12.108;2023-07-20T14:43:11;2.25;;;0.00;;
37241;SDS011;23135;51.078;12.108;2023-07-20T14:45:39;0.00;;;0.00;;